PWSweather.com
Personal Weather Stations
Station Observations
KNCCHINA3
Red Tractor Trail, China Grove, NC 28023

Red Tractor TrailChina Grove, NC 28023

Lat: 35.59751, Lon: -80.60201

Elevation: 800

Station Type: Oregon Scientific WMR 968

http://www.joesweathergarage.com

High Low Average
Temperature 84.4°F29.1°C 55.5°F13.1°C 67.0°F19.4°C
Dew Point 64.1°F17.8°C 40.7°F4.8°C 57.5°F14.2°C
Winds 27.4 mph 44.1 kmh Calm Calm 8.0 mph S12.9 kmh S
Wind Gusts 35.4 mph57.0 kmh 2.2 mph3.5 kmh 13.0 mph20.9 kmh
Humidity 96% 42% 74%
Pressure 30.15 in1021.0 mb 29.77 in1008.1 mb -
Precipitation 0.00 in0.0 mm - -
Hour Temp Dew Point Humidity Winds Wind Gusts Pressure Precip Precip Rate Daily Precip Total
12:01 AM 65.5°F18.6°C 60.3°F15.7°C 83% 9.4 mph W15.1 kmh W 17.0 mph27.4 kmh 29.97 in1014.9 mb 0.00 in0.0 mm 0.00 in0.0 mm 0.00 in0.0 mm
12:07 AM 65.5°F18.6°C 60.3°F15.7°C 83% 10.2 mph WSW16.4 kmh WSW 17.0 mph27.4 kmh 29.97 in1014.9 mb 0.00 in0.0 mm 0.00 in0.0 mm 0.00 in0.0 mm
12:12 AM 65.3°F18.5°C 60.1°F15.6°C 83% 9.0 mph WSW14.5 kmh WSW 12.6 mph20.3 kmh 29.97 in1014.9 mb 0.00 in0.0 mm 0.00 in0.0 mm 0.00 in0.0 mm
12:17 AM 65.3°F18.5°C 60.1°F15.6°C 83% 7.6 mph SW12.2 kmh SW 12.6 mph20.3 kmh 29.97 in1014.9 mb 0.00 in0.0 mm 0.00 in0.0 mm 0.00 in0.0 mm
12:22 AM 64.9°F18.3°C 60.0°F15.6°C 84% 7.9 mph WSW12.7 kmh WSW 12.6 mph20.3 kmh 29.97 in1014.9 mb 0.00 in0.0 mm 0.00 in0.0 mm 0.00 in0.0 mm
12:27 AM 65.1°F18.4°C 60.2°F15.7°C 84% 8.0 mph WSW12.9 kmh WSW 13.0 mph20.9 kmh 30.00 in1015.9 mb 0.00 in0.0 mm 0.00 in0.0 mm 0.00 in0.0 mm
12:32 AM 65.1°F18.4°C 60.2°F15.7°C 84% 8.4 mph WSW13.5 kmh WSW 14.4 mph23.2 kmh 30.00 in1015.9 mb 0.00 in0.0 mm 0.00 in0.0 mm 0.00 in0.0 mm
12:37 AM 65.1°F18.4°C 60.2°F15.7°C 84% 9.9 mph WSW15.9 kmh WSW 14.4 mph23.2 kmh 30.00 in1015.9 mb 0.00 in0.0 mm 0.00 in0.0 mm 0.00 in0.0 mm
12:42 AM 65.1°F18.4°C 60.2°F15.7°C 84% 9.0 mph WSW14.5 kmh WSW 14.4 mph23.2 kmh 29.97 in1014.9 mb 0.00 in0.0 mm 0.00 in0.0 mm 0.00 in0.0 mm
12:47 AM 65.1°F18.4°C 60.2°F15.7°C 84% 9.1 mph WSW14.6 kmh WSW 13.0 mph20.9 kmh 29.97 in1014.9 mb 0.00 in0.0 mm 0.00 in0.0 mm 0.00 in0.0 mm
12:52 AM 65.1°F18.4°C 60.2°F15.7°C 84% 7.9 mph WSW12.7 kmh WSW 14.8 mph23.8 kmh 29.97 in1014.9 mb 0.00 in0.0 mm 0.00 in0.0 mm 0.00 in0.0 mm
12:57 AM 65.1°F18.4°C 59.9°F15.5°C 83% 7.0 mph WSW11.3 kmh WSW 14.8 mph23.8 kmh 29.97 in1014.9 mb 0.00 in0.0 mm 0.00 in0.0 mm 0.00 in0.0 mm
01:02 AM 64.9°F18.3°C 60.0°F15.6°C 84% 6.6 mph WSW10.6 kmh WSW 11.6 mph18.7 kmh 29.97 in1014.9 mb 0.00 in0.0 mm 0.00 in0.0 mm 0.00 in0.0 mm
01:08 AM 64.7°F18.2°C 59.8°F15.4°C 84% 8.1 mph WSW13.0 kmh WSW 11.6 mph18.7 kmh 29.97 in1014.9 mb 0.00 in0.0 mm 0.00 in0.0 mm 0.00 in0.0 mm
01:13 AM 64.9°F18.3°C 60.0°F15.6°C 84% 10.3 mph WSW16.6 kmh WSW 13.4 mph21.6 kmh 29.97 in1014.9 mb 0.00 in0.0 mm 0.00 in0.0 mm 0.00 in0.0 mm
01:18 AM 64.9°F18.3°C 60.0°F15.6°C 84% 10.2 mph WSW16.4 kmh WSW 14.8 mph23.8 kmh 29.97 in1014.9 mb 0.00 in0.0 mm 0.00 in0.0 mm 0.00 in0.0 mm
01:23 AM 64.9°F18.3°C 59.7°F15.4°C 83% 7.2 mph WSW11.6 kmh WSW 14.8 mph23.8 kmh 29.97 in1014.9 mb 0.00 in0.0 mm 0.00 in0.0 mm 0.00 in0.0 mm
01:28 AM 64.9°F18.3°C 59.7°F15.4°C 83% 6.7 mph W10.8 kmh W 13.0 mph20.9 kmh 29.94 in1013.9 mb 0.00 in0.0 mm 0.00 in0.0 mm 0.00 in0.0 mm
01:33 AM 64.9°F18.3°C 60.0°F15.6°C 84% 7.9 mph WSW12.7 kmh WSW 10.8 mph17.4 kmh 29.94 in1013.9 mb 0.00 in0.0 mm 0.00 in0.0 mm 0.00 in0.0 mm
01:39 AM 64.9°F18.3°C 60.0°F15.6°C 84% 8.6 mph WSW13.8 kmh WSW 12.0 mph19.3 kmh 29.94 in1013.9 mb 0.00 in0.0 mm 0.00 in0.0 mm 0.00 in0.0 mm
01:45 AM 64.9°F18.3°C 60.0°F15.6°C 84% 7.1 mph SW11.4 kmh SW 12.0 mph19.3 kmh 29.94 in1013.9 mb 0.00 in0.0 mm 0.00 in0.0 mm 0.00 in0.0 mm
01:51 AM 64.9°F18.3°C 60.0°F15.6°C 84% 7.4 mph SW11.9 kmh SW 14.8 mph23.8 kmh 29.94 in1013.9 mb 0.00 in0.0 mm 0.00 in0.0 mm 0.00 in0.0 mm
01:56 AM 64.7°F18.2°C 59.8°F15.4°C 84% 7.3 mph SW11.7 kmh SW 12.6 mph20.3 kmh 29.94 in1013.9 mb 0.00 in0.0 mm 0.00 in0.0 mm 0.00 in0.0 mm
02:01 AM 64.6°F18.1°C 59.7°F15.4°C 84% 7.6 mph SW12.2 kmh SW 11.2 mph18.0 kmh 29.91 in1012.9 mb 0.00 in0.0 mm 0.00 in0.0 mm 0.00 in0.0 mm
02:06 AM 64.7°F18.2°C 59.8°F15.4°C 84% 6.7 mph SW10.8 kmh SW 9.8 mph15.8 kmh 29.91 in1012.9 mb 0.00 in0.0 mm 0.00 in0.0 mm 0.00 in0.0 mm
02:11 AM 64.6°F18.1°C 60.0°F15.6°C 85% 6.4 mph WSW10.3 kmh WSW 11.2 mph18.0 kmh 29.91 in1012.9 mb 0.00 in0.0 mm 0.00 in0.0 mm 0.00 in0.0 mm
02:16 AM 64.6°F18.1°C 60.0°F15.6°C 85% 6.5 mph SW10.5 kmh SW 11.2 mph18.0 kmh 29.94 in1013.9 mb 0.00 in0.0 mm 0.00 in0.0 mm 0.00 in0.0 mm
02:22 AM 64.4°F18.0°C 59.8°F15.4°C 85% 6.8 mph WSW10.9 kmh WSW 10.8 mph17.4 kmh 29.94 in1013.9 mb 0.00 in0.0 mm 0.00 in0.0 mm 0.00 in0.0 mm
02:27 AM 64.4°F18.0°C 60.2°F15.7°C 86% 7.7 mph WSW12.4 kmh WSW 11.2 mph18.0 kmh 29.94 in1013.9 mb 0.00 in0.0 mm 0.00 in0.0 mm 0.00 in0.0 mm
02:32 AM 64.4°F18.0°C 60.2°F15.7°C 86% 8.2 mph SW13.2 kmh SW 11.6 mph18.7 kmh 29.91 in1012.9 mb 0.00 in0.0 mm 0.00 in0.0 mm 0.00 in0.0 mm
02:37 AM 64.4°F18.0°C 60.2°F15.7°C 86% 5.8 mph WSW9.3 kmh WSW 11.6 mph18.7 kmh 29.91 in1012.9 mb 0.00 in0.0 mm 0.00 in0.0 mm 0.00 in0.0 mm
02:43 AM 64.2°F17.9°C 60.3°F15.7°C 87% 6.4 mph SW10.3 kmh SW 11.2 mph18.0 kmh 29.91 in1012.9 mb 0.00 in0.0 mm 0.00 in0.0 mm 0.00 in0.0 mm
02:48 AM 64.2°F17.9°C 60.3°F15.7°C 87% 5.6 mph WSW9.0 kmh WSW 9.8 mph15.8 kmh 29.91 in1012.9 mb 0.00 in0.0 mm 0.00 in0.0 mm 0.00 in0.0 mm
02:53 AM 64.0°F17.8°C 60.4°F15.8°C 88% 7.2 mph WSW11.6 kmh WSW 9.8 mph15.8 kmh 29.91 in1012.9 mb 0.00 in0.0 mm 0.00 in0.0 mm 0.00 in0.0 mm
02:58 AM 64.2°F17.9°C 60.6°F15.9°C 88% 8.5 mph SW13.7 kmh SW 12.0 mph19.3 kmh 29.91 in1012.9 mb 0.00 in0.0 mm 0.00 in0.0 mm 0.00 in0.0 mm
03:03 AM 64.0°F17.8°C 60.7°F15.9°C 89% 7.8 mph SW12.6 kmh SW 12.0 mph19.3 kmh 29.91 in1012.9 mb 0.00 in0.0 mm 0.00 in0.0 mm 0.00 in0.0 mm
03:08 AM 64.0°F17.8°C 61.0°F16.1°C 90% 7.9 mph WSW12.7 kmh WSW 12.0 mph19.3 kmh 29.91 in1012.9 mb 0.00 in0.0 mm 0.00 in0.0 mm 0.00 in0.0 mm
03:14 AM 63.8°F17.7°C 60.8°F16.0°C 90% 5.7 mph SW9.2 kmh SW 11.6 mph18.7 kmh 29.88 in1011.9 mb 0.00 in0.0 mm 0.00 in0.0 mm 0.00 in0.0 mm
03:19 AM 63.8°F17.7°C 60.8°F16.0°C 90% 6.7 mph SW10.8 kmh SW 11.6 mph18.7 kmh 29.88 in1011.9 mb 0.00 in0.0 mm 0.00 in0.0 mm 0.00 in0.0 mm
03:24 AM 63.7°F17.6°C 61.0°F16.1°C 91% 7.3 mph WSW11.7 kmh WSW 9.8 mph15.8 kmh 29.88 in1011.9 mb 0.00 in0.0 mm 0.00 in0.0 mm 0.00 in0.0 mm
03:29 AM 63.5°F17.5°C 60.8°F16.0°C 91% 4.8 mph SW7.7 kmh SW 9.8 mph15.8 kmh 29.88 in1011.9 mb 0.00 in0.0 mm 0.00 in0.0 mm 0.00 in0.0 mm
03:34 AM 63.5°F17.5°C 60.8°F16.0°C 91% 5.9 mph SW9.5 kmh SW 12.6 mph20.3 kmh 29.88 in1011.9 mb 0.00 in0.0 mm 0.00 in0.0 mm 0.00 in0.0 mm
03:39 AM 63.3°F17.4°C 60.9°F16.1°C 92% 5.8 mph WSW9.3 kmh WSW 12.6 mph20.3 kmh 29.88 in1011.9 mb 0.00 in0.0 mm 0.00 in0.0 mm 0.00 in0.0 mm
03:45 AM 63.3°F17.4°C 60.9°F16.1°C 92% 5.8 mph SW9.3 kmh SW 11.2 mph18.0 kmh 29.91 in1012.9 mb 0.00 in0.0 mm 0.00 in0.0 mm 0.00 in0.0 mm
03:49 AM 62.9°F17.2°C 60.5°F15.8°C 92% 4.7 mph SW7.6 kmh SW 11.2 mph18.0 kmh 29.91 in1012.9 mb 0.00 in0.0 mm 0.00 in0.0 mm 0.00 in0.0 mm
03:54 AM 62.9°F17.2°C 60.9°F16.1°C 93% 5.7 mph WSW9.2 kmh WSW 8.6 mph13.8 kmh 29.91 in1012.9 mb 0.00 in0.0 mm 0.00 in0.0 mm 0.00 in0.0 mm
04:00 AM 62.9°F17.2°C 60.9°F16.1°C 93% 6.6 mph WSW10.6 kmh WSW 8.6 mph13.8 kmh 29.91 in1012.9 mb 0.00 in0.0 mm 0.00 in0.0 mm 0.00 in0.0 mm
04:06 AM 62.9°F17.2°C 60.9°F16.1°C 93% 6.1 mph WSW9.8 kmh WSW 11.2 mph18.0 kmh 29.91 in1012.9 mb 0.00 in0.0 mm 0.00 in0.0 mm 0.00 in0.0 mm
04:11 AM 62.9°F17.2°C 60.9°F16.1°C 93% 5.8 mph W9.3 kmh W 8.6 mph13.8 kmh 29.91 in1012.9 mb 0.00 in0.0 mm 0.00 in0.0 mm 0.00 in0.0 mm
04:17 AM 63.3°F17.4°C 61.2°F16.2°C 93% 6.7 mph SW10.8 kmh SW 12.6 mph20.3 kmh 29.91 in1012.9 mb 0.00 in0.0 mm 0.00 in0.0 mm 0.00 in0.0 mm
04:22 AM 63.3°F17.4°C 61.2°F16.2°C 93% 5.3 mph SW8.5 kmh SW 11.2 mph18.0 kmh 29.91 in1012.9 mb 0.00 in0.0 mm 0.00 in0.0 mm 0.00 in0.0 mm
04:27 AM 63.1°F17.3°C 61.0°F16.1°C 93% 5.4 mph WSW8.7 kmh WSW 8.6 mph13.8 kmh 29.91 in1012.9 mb 0.00 in0.0 mm 0.00 in0.0 mm 0.00 in0.0 mm
04:32 AM 63.3°F17.4°C 61.5°F16.4°C 94% 7.0 mph SW11.3 kmh SW 12.0 mph19.3 kmh 29.91 in1012.9 mb 0.00 in0.0 mm 0.00 in0.0 mm 0.00 in0.0 mm
04:37 AM 63.5°F17.5°C 61.4°F16.3°C 93% 8.9 mph WSW14.3 kmh WSW 16.2 mph26.1 kmh 29.91 in1012.9 mb 0.00 in0.0 mm 0.00 in0.0 mm 0.00 in0.0 mm
04:42 AM 63.5°F17.5°C 61.4°F16.3°C 93% 7.3 mph WSW11.7 kmh WSW 16.2 mph26.1 kmh 29.91 in1012.9 mb 0.00 in0.0 mm 0.00 in0.0 mm 0.00 in0.0 mm
04:47 AM 63.5°F17.5°C 61.4°F16.3°C 93% 7.4 mph WSW11.9 kmh WSW 14.8 mph23.8 kmh 29.91 in1012.9 mb 0.00 in0.0 mm 0.00 in0.0 mm 0.00 in0.0 mm
04:52 AM 63.5°F17.5°C 61.4°F16.3°C 93% 7.1 mph WSW11.4 kmh WSW 12.0 mph19.3 kmh 29.91 in1012.9 mb 0.00 in0.0 mm 0.00 in0.0 mm 0.00 in0.0 mm
04:57 AM 63.5°F17.5°C 61.7°F16.5°C 94% 6.9 mph WSW11.1 kmh WSW 14.8 mph23.8 kmh 29.91 in1012.9 mb 0.00 in0.0 mm 0.00 in0.0 mm 0.00 in0.0 mm
05:02 AM 63.5°F17.5°C 61.7°F16.5°C 94% 9.1 mph WSW14.6 kmh WSW 14.8 mph23.8 kmh 29.91 in1012.9 mb 0.00 in0.0 mm 0.00 in0.0 mm 0.00 in0.0 mm
05:07 AM 63.7°F17.6°C 61.9°F16.6°C 94% 7.4 mph WSW11.9 kmh WSW 12.0 mph19.3 kmh 29.91 in1012.9 mb 0.00 in0.0 mm 0.00 in0.0 mm 0.00 in0.0 mm
05:12 AM 63.7°F17.6°C 61.6°F16.4°C 93% 5.4 mph SW8.7 kmh SW 11.2 mph18.0 kmh 29.91 in1012.9 mb 0.00 in0.0 mm 0.00 in0.0 mm 0.00 in0.0 mm
05:17 AM 63.7°F17.6°C 61.6°F16.4°C 93% 6.4 mph WSW10.3 kmh WSW 11.2 mph18.0 kmh 29.91 in1012.9 mb 0.00 in0.0 mm 0.00 in0.0 mm 0.00 in0.0 mm
05:22 AM 63.7°F17.6°C 61.6°F16.4°C 93% 6.7 mph WSW10.8 kmh WSW 10.8 mph17.4 kmh 29.91 in1012.9 mb 0.00 in0.0 mm 0.00 in0.0 mm 0.00 in0.0 mm
05:28 AM 63.7°F17.6°C 61.6°F16.4°C 93% 6.2 mph WSW10.0 kmh WSW 12.0 mph19.3 kmh 29.91 in1012.9 mb 0.00 in0.0 mm 0.00 in0.0 mm 0.00 in0.0 mm
05:33 AM 63.7°F17.6°C 61.6°F16.4°C 93% 6.1 mph WSW9.8 kmh WSW 12.0 mph19.3 kmh 29.91 in1012.9 mb 0.00 in0.0 mm 0.00 in0.0 mm 0.00 in0.0 mm
05:38 AM 63.7°F17.6°C 61.9°F16.6°C 94% 8.2 mph W13.2 kmh W 11.2 mph18.0 kmh 29.91 in1012.9 mb 0.00 in0.0 mm 0.00 in0.0 mm 0.00 in0.0 mm
05:43 AM 63.8°F17.7°C 62.0°F16.7°C 94% 8.2 mph W13.2 kmh W 13.0 mph20.9 kmh 29.91 in1012.9 mb 0.00 in0.0 mm 0.00 in0.0 mm 0.00 in0.0 mm
05:48 AM 63.8°F17.7°C 61.7°F16.5°C 93% 7.3 mph W11.7 kmh W 13.0 mph20.9 kmh 29.91 in1012.9 mb 0.00 in0.0 mm 0.00 in0.0 mm 0.00 in0.0 mm
05:53 AM 63.8°F17.7°C 61.7°F16.5°C 93% 5.2 mph WSW8.4 kmh WSW 13.0 mph20.9 kmh 29.91 in1012.9 mb 0.00 in0.0 mm 0.00 in0.0 mm 0.00 in0.0 mm
05:58 AM 63.7°F17.6°C 61.6°F16.4°C 93% 6.2 mph WSW10.0 kmh WSW 10.8 mph17.4 kmh 29.91 in1012.9 mb 0.00 in0.0 mm 0.00 in0.0 mm 0.00 in0.0 mm
06:04 AM 63.7°F17.6°C 61.9°F16.6°C 94% 5.9 mph WSW9.5 kmh WSW 8.6 mph13.8 kmh 29.91 in1012.9 mb 0.00 in0.0 mm 0.00 in0.0 mm 0.00 in0.0 mm
06:08 AM 63.7°F17.6°C 61.9°F16.6°C 94% 6.8 mph WSW10.9 kmh WSW 9.8 mph15.8 kmh 29.91 in1012.9 mb 0.00 in0.0 mm 0.00 in0.0 mm 0.00 in0.0 mm
06:14 AM 63.7°F17.6°C 61.9°F16.6°C 94% 5.3 mph WSW8.5 kmh WSW 9.8 mph15.8 kmh 29.91 in1012.9 mb 0.00 in0.0 mm 0.00 in0.0 mm 0.00 in0.0 mm
06:19 AM 63.5°F17.5°C 61.7°F16.5°C 94% 4.7 mph WSW7.6 kmh WSW 8.6 mph13.8 kmh 29.91 in1012.9 mb 0.00 in0.0 mm 0.00 in0.0 mm 0.00 in0.0 mm
06:25 AM 63.5°F17.5°C 61.7°F16.5°C 94% 4.5 mph SW7.2 kmh SW 8.6 mph13.8 kmh 29.91 in1012.9 mb 0.00 in0.0 mm 0.00 in0.0 mm 0.00 in0.0 mm
06:29 AM 63.7°F17.6°C 61.9°F16.6°C 94% 5.8 mph WSW9.3 kmh WSW 8.6 mph13.8 kmh 29.91 in1012.9 mb 0.00 in0.0 mm 0.00 in0.0 mm 0.00 in0.0 mm
06:35 AM 63.7°F17.6°C 61.9°F16.6°C 94% 6.4 mph W10.3 kmh W 9.8 mph15.8 kmh 29.91 in1012.9 mb 0.00 in0.0 mm 0.00 in0.0 mm 0.00 in0.0 mm
06:40 AM 63.7°F17.6°C 61.9°F16.6°C 94% 5.0 mph SW8.0 kmh SW 9.8 mph15.8 kmh 29.91 in1012.9 mb 0.00 in0.0 mm 0.00 in0.0 mm 0.00 in0.0 mm
06:45 AM 63.7°F17.6°C 61.9°F16.6°C 94% 3.6 mph SSW5.8 kmh SSW 6.8 mph10.9 kmh 29.88 in1011.9 mb 0.00 in0.0 mm 0.00 in0.0 mm 0.00 in0.0 mm
06:50 AM 63.7°F17.6°C 61.9°F16.6°C 94% 5.7 mph W9.2 kmh W 7.6 mph12.2 kmh 29.88 in1011.9 mb 0.00 in0.0 mm 0.00 in0.0 mm 0.00 in0.0 mm
06:55 AM 63.7°F17.6°C 61.9°F16.6°C 94% 5.8 mph WSW9.3 kmh WSW 7.6 mph12.2 kmh 29.88 in1011.9 mb 0.00 in0.0 mm 0.00 in0.0 mm 0.00 in0.0 mm
07:00 AM 63.7°F17.6°C 61.9°F16.6°C 94% 4.4 mph SW7.1 kmh SW 7.2 mph11.6 kmh 29.88 in1011.9 mb 0.00 in0.0 mm 0.00 in0.0 mm 0.00 in0.0 mm
07:05 AM 63.7°F17.6°C 61.9°F16.6°C 94% 5.0 mph SW8.0 kmh SW 6.8 mph10.9 kmh 29.88 in1011.9 mb 0.00 in0.0 mm 0.00 in0.0 mm 0.00 in0.0 mm
07:10 AM 63.7°F17.6°C 61.9°F16.6°C 94% 4.8 mph SW7.7 kmh SW 8.6 mph13.8 kmh 29.88 in1011.9 mb 0.00 in0.0 mm 0.00 in0.0 mm 0.00 in0.0 mm
07:15 AM 63.7°F17.6°C 61.9°F16.6°C 94% 5.5 mph WSW8.9 kmh WSW 8.6 mph13.8 kmh 29.91 in1012.9 mb 0.00 in0.0 mm 0.00 in0.0 mm 0.00 in0.0 mm
07:20 AM 63.7°F17.6°C 62.2°F16.8°C 95% 8.2 mph WSW13.2 kmh WSW 11.6 mph18.7 kmh 29.91 in1012.9 mb 0.00 in0.0 mm 0.00 in0.0 mm 0.00 in0.0 mm
07:25 AM 63.7°F17.6°C 61.9°F16.6°C 94% 5.4 mph SW8.7 kmh SW 11.6 mph18.7 kmh 29.91 in1012.9 mb 0.00 in0.0 mm 0.00 in0.0 mm 0.00 in0.0 mm
07:30 AM 63.3°F17.4°C 61.5°F16.4°C 94% 6.0 mph SSW9.7 kmh SSW 7.2 mph11.6 kmh 29.88 in1011.9 mb 0.00 in0.0 mm 0.00 in0.0 mm 0.00 in0.0 mm
07:35 AM 63.3°F17.4°C 61.8°F16.6°C 95% 6.4 mph SW10.3 kmh SW 8.6 mph13.8 kmh 29.88 in1011.9 mb 0.00 in0.0 mm 0.00 in0.0 mm 0.00 in0.0 mm
07:42 AM 63.1°F17.3°C 61.7°F16.5°C 95% 5.0 mph SW8.0 kmh SW 8.6 mph13.8 kmh 29.88 in1011.9 mb 0.00 in0.0 mm 0.00 in0.0 mm 0.00 in0.0 mm
07:47 AM 63.3°F17.4°C 61.8°F16.6°C 95% 7.4 mph WSW11.9 kmh WSW 12.0 mph19.3 kmh 29.88 in1011.9 mb 0.00 in0.0 mm 0.00 in0.0 mm 0.00 in0.0 mm
07:52 AM 63.3°F17.4°C 61.8°F16.6°C 95% 6.2 mph WSW10.0 kmh WSW 12.0 mph19.3 kmh 29.88 in1011.9 mb 0.00 in0.0 mm 0.00 in0.0 mm 0.00 in0.0 mm
07:57 AM 63.3°F17.4°C 61.8°F16.6°C 95% 5.8 mph WSW9.3 kmh WSW 8.0 mph12.9 kmh 29.88 in1011.9 mb 0.00 in0.0 mm 0.00 in0.0 mm 0.00 in0.0 mm
08:03 AM 63.3°F17.4°C 61.8°F16.6°C 95% 6.7 mph WSW10.8 kmh WSW 8.6 mph13.8 kmh 29.88 in1011.9 mb 0.00 in0.0 mm 0.00 in0.0 mm 0.00 in0.0 mm
08:08 AM 63.5°F17.5°C 62.3°F16.8°C 96% 6.7 mph WSW10.8 kmh WSW 10.8 mph17.4 kmh 29.88 in1011.9 mb 0.00 in0.0 mm 0.00 in0.0 mm 0.00 in0.0 mm
08:13 AM 63.5°F17.5°C 62.0°F16.7°C 95% 7.1 mph WSW11.4 kmh WSW 12.6 mph20.3 kmh 29.88 in1011.9 mb 0.00 in0.0 mm 0.00 in0.0 mm 0.00 in0.0 mm
08:18 AM 63.5°F17.5°C 62.0°F16.7°C 95% 4.6 mph SSW7.4 kmh SSW 12.6 mph20.3 kmh 29.88 in1011.9 mb 0.00 in0.0 mm 0.00 in0.0 mm 0.00 in0.0 mm
08:23 AM 63.5°F17.5°C 62.0°F16.7°C 95% 5.0 mph SW8.0 kmh SW 6.8 mph10.9 kmh 29.88 in1011.9 mb 0.00 in0.0 mm 0.00 in0.0 mm 0.00 in0.0 mm
08:28 AM 63.5°F17.5°C 62.0°F16.7°C 95% 5.3 mph SSW8.5 kmh SSW 7.2 mph11.6 kmh 29.88 in1011.9 mb 0.00 in0.0 mm 0.00 in0.0 mm 0.00 in0.0 mm
08:34 AM 63.7°F17.6°C 62.2°F16.8°C 95% 5.5 mph SW8.9 kmh SW 7.6 mph12.2 kmh 29.88 in1011.9 mb 0.00 in0.0 mm 0.00 in0.0 mm 0.00 in0.0 mm
08:39 AM 63.8°F17.7°C 62.3°F16.8°C 95% 4.4 mph SW7.1 kmh SW 7.6 mph12.2 kmh 29.88 in1011.9 mb 0.00 in0.0 mm 0.00 in0.0 mm 0.00 in0.0 mm
08:44 AM 64.0°F17.8°C 62.5°F16.9°C 95% 4.7 mph SW7.6 kmh SW 6.2 mph10.0 kmh 29.88 in1011.9 mb 0.00 in0.0 mm 0.00 in0.0 mm 0.00 in0.0 mm
08:49 AM 64.6°F18.1°C 62.8°F17.1°C 94% 5.7 mph W9.2 kmh W 8.6 mph13.8 kmh 29.88 in1011.9 mb 0.00 in0.0 mm 0.00 in0.0 mm 0.00 in0.0 mm
08:55 AM 64.9°F18.3°C 62.8°F17.1°C 93% 4.9 mph SW7.9 kmh SW 9.8 mph15.8 kmh 29.88 in1011.9 mb 0.00 in0.0 mm 0.00 in0.0 mm 0.00 in0.0 mm
09:00 AM 65.3°F18.5°C 63.2°F17.3°C 93% 5.5 mph SW8.9 kmh SW 8.6 mph13.8 kmh 29.88 in1011.9 mb 0.00 in0.0 mm 0.00 in0.0 mm 0.00 in0.0 mm
09:06 AM 65.8°F18.8°C 63.3°F17.4°C 92% 6.5 mph SSW10.5 kmh SSW 9.0 mph14.5 kmh 29.88 in1011.9 mb 0.00 in0.0 mm 0.00 in0.0 mm 0.00 in0.0 mm
09:11 AM 66.0°F18.9°C 63.2°F17.3°C 91% 6.5 mph SW10.5 kmh SW 10.8 mph17.4 kmh 29.88 in1011.9 mb 0.00 in0.0 mm 0.00 in0.0 mm 0.00 in0.0 mm
09:16 AM 66.0°F18.9°C 63.2°F17.3°C 91% 7.6 mph WSW12.2 kmh WSW 10.8 mph17.4 kmh 29.91 in1012.9 mb 0.00 in0.0 mm 0.00 in0.0 mm 0.00 in0.0 mm
09:21 AM 66.0°F18.9°C 63.2°F17.3°C 91% 4.6 mph SW7.4 kmh SW 10.8 mph17.4 kmh 29.91 in1012.9 mb 0.00 in0.0 mm 0.00 in0.0 mm 0.00 in0.0 mm
09:26 AM 66.4°F19.1°C 63.3°F17.4°C 90% 7.1 mph SW11.4 kmh SW 11.2 mph18.0 kmh 29.91 in1012.9 mb 0.00 in0.0 mm 0.00 in0.0 mm 0.00 in0.0 mm
09:31 AM 66.5°F19.2°C 63.4°F17.4°C 90% 6.2 mph SW10.0 kmh SW 11.2 mph18.0 kmh 29.88 in1011.9 mb 0.00 in0.0 mm 0.00 in0.0 mm 0.00 in0.0 mm
09:37 AM 66.9°F19.4°C 63.5°F17.5°C 89% 9.0 mph W14.5 kmh W 13.0 mph20.9 kmh 29.88 in1011.9 mb 0.00 in0.0 mm 0.00 in0.0 mm 0.00 in0.0 mm
09:42 AM 67.1°F19.5°C 63.7°F17.6°C 89% 9.9 mph WSW15.9 kmh WSW 15.2 mph24.5 kmh 29.88 in1011.9 mb 0.00 in0.0 mm 0.00 in0.0 mm 0.00 in0.0 mm
09:47 AM 66.9°F19.4°C 63.5°F17.5°C 89% 6.5 mph SW10.5 kmh SW 15.2 mph24.5 kmh 29.88 in1011.9 mb 0.00 in0.0 mm 0.00 in0.0 mm 0.00 in0.0 mm
09:52 AM 67.1°F19.5°C 63.4°F17.4°C 88% 6.6 mph SW10.6 kmh SW 12.0 mph19.3 kmh 29.88 in1011.9 mb 0.00 in0.0 mm 0.00 in0.0 mm 0.00 in0.0 mm
09:57 AM 67.6°F19.8°C 63.9°F17.7°C 88% 4.9 mph WSW7.9 kmh WSW 9.8 mph15.8 kmh 29.91 in1012.9 mb 0.00 in0.0 mm 0.00 in0.0 mm 0.00 in0.0 mm
10:02 AM 67.6°F19.8°C 63.6°F17.6°C 87% 7.8 mph WSW12.6 kmh WSW 11.2 mph18.0 kmh 29.91 in1012.9 mb 0.00 in0.0 mm 0.00 in0.0 mm 0.00 in0.0 mm
10:07 AM 68.0°F20.0°C 63.6°F17.6°C 86% 9.2 mph WSW14.8 kmh WSW 11.6 mph18.7 kmh 29.91 in1012.9 mb 0.00 in0.0 mm 0.00 in0.0 mm 0.00 in0.0 mm
10:12 AM 67.8°F19.9°C 63.1°F17.3°C 85% 9.8 mph WSW15.8 kmh WSW 14.8 mph23.8 kmh 29.91 in1012.9 mb 0.00 in0.0 mm 0.00 in0.0 mm 0.00 in0.0 mm
10:18 AM 68.2°F20.1°C 63.8°F17.7°C 86% 6.7 mph WSW10.8 kmh WSW 14.8 mph23.8 kmh 29.91 in1012.9 mb 0.00 in0.0 mm 0.00 in0.0 mm 0.00 in0.0 mm
10:23 AM 68.3°F20.2°C 63.6°F17.6°C 85% 6.3 mph WSW10.1 kmh WSW 10.8 mph17.4 kmh 29.91 in1012.9 mb 0.00 in0.0 mm 0.00 in0.0 mm 0.00 in0.0 mm
10:28 AM 68.7°F20.4°C 63.3°F17.4°C 83% 10.4 mph W16.7 kmh W 15.2 mph24.5 kmh 29.91 in1012.9 mb 0.00 in0.0 mm 0.00 in0.0 mm 0.00 in0.0 mm
10:33 AM 69.2°F20.7°C 63.8°F17.7°C 83% 8.5 mph WSW13.7 kmh WSW 15.2 mph24.5 kmh 29.91 in1012.9 mb 0.00 in0.0 mm 0.00 in0.0 mm 0.00 in0.0 mm
10:38 AM 69.2°F20.7°C 63.1°F17.3°C 81% 10.4 mph WSW16.7 kmh WSW 19.2 mph30.9 kmh 29.91 in1012.9 mb 0.00 in0.0 mm 0.00 in0.0 mm 0.00 in0.0 mm
10:43 AM 70.1°F21.2°C 63.7°F17.6°C 80% 8.6 mph WSW13.8 kmh WSW 19.2 mph30.9 kmh 29.91 in1012.9 mb 0.00 in0.0 mm 0.00 in0.0 mm 0.00 in0.0 mm
10:48 AM 70.9°F21.6°C 64.1°F17.8°C 79% 10.1 mph WSW16.3 kmh WSW 12.6 mph20.3 kmh 29.91 in1012.9 mb 0.00 in0.0 mm 0.00 in0.0 mm 0.00 in0.0 mm
10:53 AM 71.4°F21.9°C 63.9°F17.7°C 77% 7.7 mph W12.4 kmh W 12.6 mph20.3 kmh 29.91 in1012.9 mb 0.00 in0.0 mm 0.00 in0.0 mm 0.00 in0.0 mm
10:59 AM 71.8°F22.1°C 63.5°F17.5°C 75% 10.5 mph W16.9 kmh W 14.8 mph23.8 kmh 29.91 in1012.9 mb 0.00 in0.0 mm 0.00 in0.0 mm 0.00 in0.0 mm
11:04 AM 71.4°F21.9°C 63.2°F17.3°C 75% 10.1 mph WSW16.3 kmh WSW 15.2 mph24.5 kmh 29.91 in1012.9 mb 0.00 in0.0 mm 0.00 in0.0 mm 0.00 in0.0 mm
11:08 AM 71.8°F22.1°C 63.2°F17.3°C 74% 8.5 mph WSW13.7 kmh WSW 15.6 mph25.1 kmh 29.91 in1012.9 mb 0.00 in0.0 mm 0.00 in0.0 mm 0.00 in0.0 mm
11:14 AM 72.7°F22.6°C 63.7°F17.6°C 73% 9.9 mph SW15.9 kmh SW 15.6 mph25.1 kmh 29.88 in1011.9 mb 0.00 in0.0 mm 0.00 in0.0 mm 0.00 in0.0 mm
11:19 AM 73.0°F22.8°C 63.2°F17.3°C 71% 10.7 mph W17.2 kmh W 15.6 mph25.1 kmh 29.88 in1011.9 mb 0.00 in0.0 mm 0.00 in0.0 mm 0.00 in0.0 mm
11:24 AM 72.8°F22.7°C 63.0°F17.2°C 71% 9.2 mph W14.8 kmh W 15.6 mph25.1 kmh 29.88 in1011.9 mb 0.00 in0.0 mm 0.00 in0.0 mm 0.00 in0.0 mm
11:29 AM 73.7°F23.2°C 63.4°F17.4°C 70% 7.1 mph SW11.4 kmh SW 15.6 mph25.1 kmh 29.88 in1011.9 mb 0.00 in0.0 mm 0.00 in0.0 mm 0.00 in0.0 mm
11:34 AM 74.6°F23.7°C 63.9°F17.7°C 69% 7.1 mph SW11.4 kmh SW 15.6 mph25.1 kmh 29.88 in1011.9 mb 0.00 in0.0 mm 0.00 in0.0 mm 0.00 in0.0 mm
11:39 AM 74.8°F23.8°C 63.3°F17.4°C 67% 10.0 mph W16.1 kmh W 13.0 mph20.9 kmh 29.88 in1011.9 mb 0.00 in0.0 mm 0.00 in0.0 mm 0.00 in0.0 mm
11:44 AM 74.6°F23.7°C 63.1°F17.3°C 67% 6.9 mph SW11.1 kmh SW 17.0 mph27.4 kmh 29.88 in1011.9 mb 0.00 in0.0 mm 0.00 in0.0 mm 0.00 in0.0 mm
11:51 AM 75.0°F23.9°C 63.0°F17.2°C 66% 8.0 mph WSW12.9 kmh WSW 13.8 mph22.2 kmh 29.88 in1011.9 mb 0.00 in0.0 mm 0.00 in0.0 mm 0.00 in0.0 mm
11:56 AM 74.8°F23.8°C 62.8°F17.1°C 66% 10.1 mph W16.3 kmh W 15.6 mph25.1 kmh 29.88 in1011.9 mb 0.00 in0.0 mm 0.00 in0.0 mm 0.00 in0.0 mm
12:01 PM 75.5°F24.2°C 63.5°F17.5°C 66% 6.9 mph SW11.1 kmh SW 15.6 mph25.1 kmh 29.88 in1011.9 mb 0.00 in0.0 mm 0.00 in0.0 mm 0.00 in0.0 mm
12:06 PM 75.9°F24.4°C 63.0°F17.2°C 64% 7.7 mph SW12.4 kmh SW 15.2 mph24.5 kmh 29.88 in1011.9 mb 0.00 in0.0 mm 0.00 in0.0 mm 0.00 in0.0 mm
12:12 PM 76.6°F24.8°C 63.2°F17.3°C 63% 6.8 mph SW10.9 kmh SW 15.2 mph24.5 kmh 29.88 in1011.9 mb 0.00 in0.0 mm 0.00 in0.0 mm 0.00 in0.0 mm
12:17 PM 76.1°F24.5°C 62.3°F16.8°C 62% 13.1 mph W21.1 kmh W 19.2 mph30.9 kmh 29.88 in1011.9 mb 0.00 in0.0 mm 0.00 in0.0 mm 0.00 in0.0 mm
12:23 PM 76.3°F24.6°C 62.9°F17.2°C 63% 9.9 mph WSW15.9 kmh WSW 19.2 mph30.9 kmh 29.88 in1011.9 mb 0.00 in0.0 mm 0.00 in0.0 mm 0.00 in0.0 mm
12:27 PM 76.6°F24.8°C 62.3°F16.8°C 61% 9.4 mph SW15.1 kmh SW 14.4 mph23.2 kmh 29.85 in1010.8 mb 0.00 in0.0 mm 0.00 in0.0 mm 0.00 in0.0 mm
12:33 PM 77.5°F25.3°C 62.7°F17.1°C 60% 9.2 mph SW14.8 kmh SW 14.4 mph23.2 kmh 29.85 in1010.8 mb 0.00 in0.0 mm 0.00 in0.0 mm 0.00 in0.0 mm
12:38 PM 78.2°F25.7°C 62.4°F16.9°C 58% 7.1 mph WSW11.4 kmh WSW 11.6 mph18.7 kmh 29.85 in1010.8 mb 0.00 in0.0 mm 0.00 in0.0 mm 0.00 in0.0 mm
12:42 PM 78.4°F25.8°C 62.0°F16.7°C 57% 8.7 mph WSW14.0 kmh WSW 11.6 mph18.7 kmh 29.85 in1010.8 mb 0.00 in0.0 mm 0.00 in0.0 mm 0.00 in0.0 mm
12:47 PM 78.6°F25.9°C 61.7°F16.5°C 56% 8.4 mph SW13.5 kmh SW 12.0 mph19.3 kmh 29.85 in1010.8 mb 0.00 in0.0 mm 0.00 in0.0 mm 0.00 in0.0 mm
12:53 PM 78.8°F26.0°C 61.4°F16.3°C 55% 9.6 mph W15.4 kmh W 15.6 mph25.1 kmh 29.85 in1010.8 mb 0.00 in0.0 mm 0.00 in0.0 mm 0.00 in0.0 mm
12:58 PM 79.3°F26.3°C 61.8°F16.6°C 55% 6.5 mph SW10.5 kmh SW 15.6 mph25.1 kmh 29.85 in1010.8 mb 0.00 in0.0 mm 0.00 in0.0 mm 0.00 in0.0 mm
01:04 PM 79.7°F26.5°C 61.1°F16.2°C 53% 9.3 mph WSW15.0 kmh WSW 13.0 mph20.9 kmh 29.85 in1010.8 mb 0.00 in0.0 mm 0.00 in0.0 mm 0.00 in0.0 mm
01:09 PM 80.0°F26.7°C 60.9°F16.1°C 52% 6.9 mph SW11.1 kmh SW 13.4 mph21.6 kmh 29.85 in1010.8 mb 0.00 in0.0 mm 0.00 in0.0 mm 0.00 in0.0 mm
01:15 PM 80.6°F27.0°C 60.9°F16.1°C 51% 7.3 mph SW11.7 kmh SW 12.0 mph19.3 kmh 29.85 in1010.8 mb 0.00 in0.0 mm 0.00 in0.0 mm 0.00 in0.0 mm
01:20 PM 81.1°F27.3°C 60.7°F15.9°C 50% 7.1 mph WSW11.4 kmh WSW 12.0 mph19.3 kmh 29.85 in1010.8 mb 0.00 in0.0 mm 0.00 in0.0 mm 0.00 in0.0 mm
01:26 PM 81.3°F27.4°C 60.3°F15.7°C 49% 8.7 mph W14.0 kmh W 13.0 mph20.9 kmh 29.85 in1010.8 mb 0.00 in0.0 mm 0.00 in0.0 mm 0.00 in0.0 mm
01:31 PM 79.5°F26.4°C 58.1°F14.5°C 48% 15.4 mph W24.8 kmh W 22.0 mph35.4 kmh 29.85 in1010.8 mb 0.00 in0.0 mm 0.00 in0.0 mm 0.00 in0.0 mm
01:59 PM 81.7°F27.6°C 58.2°F14.6°C 45% 11.6 mph W18.7 kmh W 17.4 mph28.0 kmh 29.80 in1009.1 mb 0.00 in0.0 mm 0.00 in0.0 mm 0.00 in0.0 mm
02:04 PM 81.8°F27.7°C 59.0°F15.0°C 46% 7.1 mph W11.4 kmh W 17.4 mph28.0 kmh 29.80 in1009.1 mb 0.00 in0.0 mm 0.00 in0.0 mm 0.00 in0.0 mm
02:10 PM 82.7°F28.2°C 59.2°F15.1°C 45% 6.6 mph WSW10.6 kmh WSW 14.8 mph23.8 kmh 29.80 in1009.1 mb 0.00 in0.0 mm 0.00 in0.0 mm 0.00 in0.0 mm
02:15 PM 82.9°F28.3°C 58.7°F14.8°C 44% 12.4 mph WSW20.0 kmh WSW 14.4 mph23.2 kmh 29.80 in1009.1 mb 0.00 in0.0 mm 0.00 in0.0 mm 0.00 in0.0 mm
02:20 PM 83.8°F28.8°C 59.5°F15.3°C 44% 7.2 mph SW11.6 kmh SW 14.4 mph23.2 kmh 29.80 in1009.1 mb 0.00 in0.0 mm 0.00 in0.0 mm 0.00 in0.0 mm
02:25 PM 84.0°F28.9°C 59.0°F15.0°C 43% 6.9 mph WSW11.1 kmh WSW 12.6 mph20.3 kmh 29.80 in1009.1 mb 0.00 in0.0 mm 0.00 in0.0 mm 0.00 in0.0 mm
02:30 PM 84.4°F29.1°C 58.7°F14.8°C 42% 9.2 mph WSW14.8 kmh WSW 13.8 mph22.2 kmh 29.77 in1008.1 mb 0.00 in0.0 mm 0.00 in0.0 mm 0.00 in0.0 mm
02:35 PM 82.7°F28.2°C 57.8°F14.3°C 43% 8.6 mph SW13.8 kmh SW 13.8 mph22.2 kmh 29.77 in1008.1 mb 0.00 in0.0 mm 0.00 in0.0 mm 0.00 in0.0 mm
02:40 PM 82.2°F27.9°C 57.4°F14.1°C 43% 10.5 mph W16.9 kmh W 13.8 mph22.2 kmh 29.77 in1008.1 mb 0.00 in0.0 mm 0.00 in0.0 mm 0.00 in0.0 mm
02:50 PM 83.1°F28.4°C 57.5°F14.2°C 42% 13.3 mph W21.4 kmh W 18.4 mph29.6 kmh 29.77 in1008.1 mb 0.00 in0.0 mm 0.00 in0.0 mm 0.00 in0.0 mm
02:55 PM 83.1°F28.4°C 57.5°F14.2°C 42% 12.3 mph WNW19.8 kmh WNW 18.4 mph29.6 kmh 29.77 in1008.1 mb 0.00 in0.0 mm 0.00 in0.0 mm 0.00 in0.0 mm
03:00 PM 83.1°F28.4°C 57.5°F14.2°C 42% 12.0 mph WSW19.3 kmh WSW 20.2 mph32.5 kmh 29.77 in1008.1 mb 0.00 in0.0 mm 0.00 in0.0 mm 0.00 in0.0 mm
03:05 PM 83.5°F28.6°C 57.9°F14.4°C 42% 10.6 mph WSW17.1 kmh WSW 20.2 mph32.5 kmh 29.77 in1008.1 mb 0.00 in0.0 mm 0.00 in0.0 mm 0.00 in0.0 mm
03:10 PM 82.7°F28.2°C 57.2°F14.0°C 42% 11.8 mph W19.0 kmh W 17.4 mph28.0 kmh 29.77 in1008.1 mb 0.00 in0.0 mm 0.00 in0.0 mm 0.00 in0.0 mm
03:15 PM 82.7°F28.2°C 57.2°F14.0°C 42% 13.9 mph W22.4 kmh W 19.2 mph30.9 kmh 29.77 in1008.1 mb 0.00 in0.0 mm 0.00 in0.0 mm 0.00 in0.0 mm
03:20 PM 82.6°F28.1°C 57.1°F13.9°C 42% 13.8 mph W22.2 kmh W 19.2 mph30.9 kmh 29.77 in1008.1 mb 0.00 in0.0 mm 0.00 in0.0 mm 0.00 in0.0 mm
03:25 PM 82.4°F28.0°C 56.9°F13.8°C 42% 9.6 mph WNW15.4 kmh WNW 17.4 mph28.0 kmh 29.77 in1008.1 mb 0.00 in0.0 mm 0.00 in0.0 mm 0.00 in0.0 mm
03:30 PM 81.5°F27.5°C 56.8°F13.8°C 43% 9.0 mph W14.5 kmh W 17.4 mph28.0 kmh 29.80 in1009.1 mb 0.00 in0.0 mm 0.00 in0.0 mm 0.00 in0.0 mm
03:35 PM 81.3°F27.4°C 56.6°F13.7°C 43% 11.6 mph W18.7 kmh W 15.6 mph25.1 kmh 29.80 in1009.1 mb 0.00 in0.0 mm 0.00 in0.0 mm 0.00 in0.0 mm
03:40 PM 81.5°F27.5°C 56.8°F13.8°C 43% 12.6 mph WSW20.3 kmh WSW 17.0 mph27.4 kmh 29.80 in1009.1 mb 0.00 in0.0 mm 0.00 in0.0 mm 0.00 in0.0 mm
03:45 PM 81.7°F27.6°C 56.9°F13.8°C 43% 10.5 mph WSW16.9 kmh WSW 17.0 mph27.4 kmh 29.77 in1008.1 mb 0.00 in0.0 mm 0.00 in0.0 mm 0.00 in0.0 mm
03:50 PM 80.8°F27.1°C 56.1°F13.4°C 43% 16.5 mph W26.6 kmh W 25.6 mph41.2 kmh 29.77 in1008.1 mb 0.00 in0.0 mm 0.00 in0.0 mm 0.00 in0.0 mm
03:55 PM 80.6°F27.0°C 55.9°F13.3°C 43% 12.3 mph W19.8 kmh W 25.6 mph41.2 kmh 29.77 in1008.1 mb 0.00 in0.0 mm 0.00 in0.0 mm 0.00 in0.0 mm
04:00 PM 81.7°F27.6°C 57.6°F14.2°C 44% 8.0 mph WSW12.9 kmh WSW 15.6 mph25.1 kmh 29.77 in1008.1 mb 0.00 in0.0 mm 0.00 in0.0 mm 0.00 in0.0 mm
04:05 PM 82.2°F27.9°C 56.7°F13.7°C 42% 12.4 mph W20.0 kmh W 14.8 mph23.8 kmh 29.77 in1008.1 mb 0.00 in0.0 mm 0.00 in0.0 mm 0.00 in0.0 mm
04:10 PM 82.0°F27.8°C 57.2°F14.0°C 43% 12.2 mph W19.6 kmh W 17.4 mph28.0 kmh 29.77 in1008.1 mb 0.00 in0.0 mm 0.00 in0.0 mm 0.00 in0.0 mm
04:15 PM 82.4°F28.0°C 57.6°F14.2°C 43% 9.1 mph WSW14.6 kmh WSW 17.4 mph28.0 kmh 29.80 in1009.1 mb 0.00 in0.0 mm 0.00 in0.0 mm 0.00 in0.0 mm
04:21 PM 81.1°F27.3°C 56.4°F13.6°C 43% 15.3 mph W24.6 kmh W 20.2 mph32.5 kmh 29.80 in1009.1 mb 0.00 in0.0 mm 0.00 in0.0 mm 0.00 in0.0 mm
04:26 PM 80.0°F26.7°C 56.1°F13.4°C 44% 13.1 mph WNW21.1 kmh WNW 20.2 mph32.5 kmh 29.80 in1009.1 mb 0.00 in0.0 mm 0.00 in0.0 mm 0.00 in0.0 mm
04:31 PM 79.9°F26.6°C 56.0°F13.3°C 44% 10.9 mph W17.5 kmh W 20.2 mph32.5 kmh 29.80 in1009.1 mb 0.00 in0.0 mm 0.00 in0.0 mm 0.00 in0.0 mm
04:36 PM 80.0°F26.7°C 56.7°F13.7°C 45% 6.5 mph NW10.5 kmh NW 15.2 mph24.5 kmh 29.80 in1009.1 mb 0.00 in0.0 mm 0.00 in0.0 mm 0.00 in0.0 mm
04:44 PM 80.6°F27.0°C 57.2°F14.0°C 45% 9.2 mph WSW14.8 kmh WSW 13.4 mph21.6 kmh 29.80 in1009.1 mb 0.00 in0.0 mm 0.00 in0.0 mm 0.00 in0.0 mm
04:49 PM 80.4°F26.9°C 57.1°F13.9°C 45% 8.2 mph WSW13.2 kmh WSW 13.4 mph21.6 kmh 29.80 in1009.1 mb 0.00 in0.0 mm 0.00 in0.0 mm 0.00 in0.0 mm
04:54 PM 79.9°F26.6°C 57.2°F14.0°C 46% 10.1 mph N16.3 kmh N 11.6 mph18.7 kmh 29.80 in1009.1 mb 0.00 in0.0 mm 0.00 in0.0 mm 0.00 in0.0 mm
04:59 PM 79.1°F26.2°C 56.5°F13.6°C 46% 6.6 mph WNW10.6 kmh WNW 12.6 mph20.3 kmh 29.83 in1010.2 mb 0.00 in0.0 mm 0.00 in0.0 mm 0.00 in0.0 mm
05:04 PM 75.0°F23.9°C 53.4°F11.9°C 47% 27.4 mph N44.1 kmh N 35.4 mph57.0 kmh 29.83 in1010.2 mb 0.00 in0.0 mm 0.00 in0.0 mm 0.00 in0.0 mm
05:09 PM 71.9°F22.2°C 53.4°F11.9°C 52% 15.8 mph N25.4 kmh N 35.4 mph57.0 kmh 29.83 in1010.2 mb 0.00 in0.0 mm 0.00 in0.0 mm 0.00 in0.0 mm
05:15 PM 68.3°F20.2°C 54.9°F12.7°C 62% 18.1 mph N29.1 kmh N 25.0 mph40.2 kmh 29.88 in1011.9 mb 0.00 in0.0 mm 0.00 in0.0 mm 0.00 in0.0 mm
05:20 PM 66.4°F19.1°C 56.0°F13.3°C 69% 13.0 mph N20.9 kmh N 25.0 mph40.2 kmh 29.88 in1011.9 mb 0.00 in0.0 mm 0.00 in0.0 mm 0.00 in0.0 mm
05:26 PM 64.2°F17.9°C 57.3°F14.1°C 78% 14.4 mph NE23.2 kmh NE 26.0 mph41.8 kmh 29.88 in1011.9 mb 0.00 in0.0 mm 0.00 in0.0 mm 0.00 in0.0 mm
05:31 PM 63.1°F17.3°C 57.9°F14.4°C 83% 12.6 mph NE20.3 kmh NE 26.0 mph41.8 kmh 29.91 in1012.9 mb 0.00 in0.0 mm 0.00 in0.0 mm 0.00 in0.0 mm
05:36 PM 62.4°F16.9°C 58.1°F14.5°C 86% 10.3 mph NE16.6 kmh NE 17.4 mph28.0 kmh 29.91 in1012.9 mb 0.00 in0.0 mm 0.00 in0.0 mm 0.00 in0.0 mm
05:41 PM 62.0°F16.7°C 58.4°F14.7°C 88% 10.8 mph NNE17.4 kmh NNE 17.4 mph28.0 kmh 29.91 in1012.9 mb 0.00 in0.0 mm 0.00 in0.0 mm 0.00 in0.0 mm
05:46 PM 61.9°F16.6°C 58.6°F14.8°C 89% 7.5 mph NNE12.1 kmh NNE 12.6 mph20.3 kmh 29.94 in1013.9 mb 0.00 in0.0 mm 0.00 in0.0 mm 0.00 in0.0 mm
05:51 PM 61.7°F16.5°C 58.4°F14.7°C 89% 6.7 mph NE10.8 kmh NE 12.6 mph20.3 kmh 29.94 in1013.9 mb 0.00 in0.0 mm 0.00 in0.0 mm 0.00 in0.0 mm
05:56 PM 61.9°F16.6°C 58.6°F14.8°C 89% 7.0 mph NE11.3 kmh NE 11.2 mph18.0 kmh 29.94 in1013.9 mb 0.00 in0.0 mm 0.00 in0.0 mm 0.00 in0.0 mm
06:01 PM 62.0°F16.7°C 58.4°F14.7°C 88% 10.4 mph NNE16.7 kmh NNE 14.8 mph23.8 kmh 29.91 in1012.9 mb 0.00 in0.0 mm 0.00 in0.0 mm 0.00 in0.0 mm
06:06 PM 62.0°F16.7°C 58.1°F14.5°C 87% 10.9 mph NNE17.5 kmh NNE 17.0 mph27.4 kmh 29.91 in1012.9 mb 0.00 in0.0 mm 0.00 in0.0 mm 0.00 in0.0 mm
06:11 PM 62.2°F16.8°C 57.9°F14.4°C 86% 9.2 mph NE14.8 kmh NE 17.0 mph27.4 kmh 29.91 in1012.9 mb 0.00 in0.0 mm 0.00 in0.0 mm 0.00 in0.0 mm
06:16 PM 62.2°F16.8°C 57.6°F14.2°C 85% 10.5 mph NNE16.9 kmh NNE 14.4 mph23.2 kmh 29.94 in1013.9 mb 0.00 in0.0 mm 0.00 in0.0 mm 0.00 in0.0 mm
06:21 PM 62.4°F16.9°C 57.2°F14.0°C 83% 5.2 mph ENE8.4 kmh ENE 14.4 mph23.2 kmh 29.94 in1013.9 mb 0.00 in0.0 mm 0.00 in0.0 mm 0.00 in0.0 mm
06:28 PM 62.4°F16.9°C 56.8°F13.8°C 82% 8.9 mph NE14.3 kmh NE 13.0 mph20.9 kmh 29.94 in1013.9 mb 0.00 in0.0 mm 0.00 in0.0 mm 0.00 in0.0 mm
06:32 PM 62.4°F16.9°C 56.8°F13.8°C 82% 3.9 mph ENE6.3 kmh ENE 13.0 mph20.9 kmh 29.94 in1013.9 mb 0.00 in0.0 mm 0.00 in0.0 mm 0.00 in0.0 mm
06:38 PM 62.4°F16.9°C 56.8°F13.8°C 82% 4.5 mph ENE7.2 kmh ENE 7.6 mph12.2 kmh 29.94 in1013.9 mb 0.00 in0.0 mm 0.00 in0.0 mm 0.00 in0.0 mm
06:43 PM 62.4°F16.9°C 56.8°F13.8°C 82% 3.4 mph NE5.5 kmh NE 7.6 mph12.2 kmh 29.94 in1013.9 mb 0.00 in0.0 mm 0.00 in0.0 mm 0.00 in0.0 mm
06:48 PM 62.4°F16.9°C 56.5°F13.6°C 81% 4.4 mph ENE7.1 kmh ENE 8.0 mph12.9 kmh 29.94 in1013.9 mb 0.00 in0.0 mm 0.00 in0.0 mm 0.00 in0.0 mm
06:53 PM 62.2°F16.8°C 56.7°F13.7°C 82% 4.2 mph NE6.8 kmh NE 8.0 mph12.9 kmh 29.94 in1013.9 mb 0.00 in0.0 mm 0.00 in0.0 mm 0.00 in0.0 mm
06:58 PM 62.2°F16.8°C 56.7°F13.7°C 82% 6.2 mph NE10.0 kmh NE 7.6 mph12.2 kmh 29.97 in1014.9 mb 0.00 in0.0 mm 0.00 in0.0 mm 0.00 in0.0 mm
07:03 PM 62.2°F16.8°C 56.3°F13.5°C 81% 3.0 mph N4.8 kmh N 7.6 mph12.2 kmh 29.97 in1014.9 mb 0.00 in0.0 mm 0.00 in0.0 mm 0.00 in0.0 mm
07:10 PM 62.2°F16.8°C 56.3°F13.5°C 81% 4.0 mph N6.4 kmh N 6.8 mph10.9 kmh 29.97 in1014.9 mb 0.00 in0.0 mm 0.00 in0.0 mm 0.00 in0.0 mm
07:15 PM 62.0°F16.7°C 56.1°F13.4°C 81% 3.1 mph ENE5.0 kmh ENE 6.8 mph10.9 kmh 29.94 in1013.9 mb 0.00 in0.0 mm 0.00 in0.0 mm 0.00 in0.0 mm
07:20 PM 62.0°F16.7°C 56.1°F13.4°C 81% Calm Calm 6.2 mph10.0 kmh 29.94 in1013.9 mb 0.00 in0.0 mm 0.00 in0.0 mm 0.00 in0.0 mm
07:25 PM 61.9°F16.6°C 56.0°F13.3°C 81% Calm Calm 2.6 mph4.2 kmh 29.94 in1013.9 mb 0.00 in0.0 mm 0.00 in0.0 mm 0.00 in0.0 mm
07:30 PM 61.9°F16.6°C 56.0°F13.3°C 81% 2.8 mph ENE4.5 kmh ENE 5.4 mph8.7 kmh 29.97 in1014.9 mb 0.00 in0.0 mm 0.00 in0.0 mm 0.00 in0.0 mm
07:35 PM 61.7°F16.5°C 55.8°F13.2°C 81% 2.3 mph ENE3.7 kmh ENE 5.4 mph8.7 kmh 29.97 in1014.9 mb 0.00 in0.0 mm 0.00 in0.0 mm 0.00 in0.0 mm
07:40 PM 61.7°F16.5°C 55.5°F13.1°C 80% 3.0 mph ENE4.8 kmh ENE 4.0 mph6.4 kmh 29.97 in1014.9 mb 0.00 in0.0 mm 0.00 in0.0 mm 0.00 in0.0 mm
07:45 PM 61.7°F16.5°C 55.8°F13.2°C 81% 3.3 mph NE5.3 kmh NE 4.0 mph6.4 kmh 30.00 in1015.9 mb 0.00 in0.0 mm 0.00 in0.0 mm 0.00 in0.0 mm
07:50 PM 61.7°F16.5°C 55.8°F13.2°C 81% 1.8 mph NE2.9 kmh NE 4.0 mph6.4 kmh 30.00 in1015.9 mb 0.00 in0.0 mm 0.00 in0.0 mm 0.00 in0.0 mm
07:55 PM 61.5°F16.4°C 55.6°F13.1°C 81% Calm Calm 4.0 mph6.4 kmh 30.00 in1015.9 mb 0.00 in0.0 mm 0.00 in0.0 mm 0.00 in0.0 mm
08:00 PM 61.5°F16.4°C 55.6°F13.1°C 81% 2.2 mph NE3.5 kmh NE 2.2 mph3.5 kmh 30.00 in1015.9 mb 0.00 in0.0 mm 0.00 in0.0 mm 0.00 in0.0 mm
08:05 PM 61.5°F16.4°C 55.6°F13.1°C 81% Calm Calm 2.6 mph4.2 kmh 30.00 in1015.9 mb 0.00 in0.0 mm 0.00 in0.0 mm 0.00 in0.0 mm
08:10 PM 61.5°F16.4°C 55.6°F13.1°C 81% 3.4 mph ENE5.5 kmh ENE 4.0 mph6.4 kmh 30.00 in1015.9 mb 0.00 in0.0 mm 0.00 in0.0 mm 0.00 in0.0 mm
08:15 PM 61.3°F16.3°C 55.8°F13.2°C 82% Calm Calm 4.0 mph6.4 kmh 30.03 in1016.9 mb 0.00 in0.0 mm 0.00 in0.0 mm 0.00 in0.0 mm
08:20 PM 61.1°F16.2°C 55.6°F13.1°C 82% Calm Calm 2.6 mph4.2 kmh 30.03 in1016.9 mb 0.00 in0.0 mm 0.00 in0.0 mm 0.00 in0.0 mm
08:25 PM 61.0°F16.1°C 55.5°F13.1°C 82% 3.1 mph ENE5.0 kmh ENE 3.2 mph5.1 kmh 30.03 in1016.9 mb 0.00 in0.0 mm 0.00 in0.0 mm 0.00 in0.0 mm
08:30 PM 61.0°F16.1°C 55.8°F13.2°C 83% 3.0 mph NNE4.8 kmh NNE 5.0 mph8.0 kmh 30.03 in1016.9 mb 0.00 in0.0 mm 0.00 in0.0 mm 0.00 in0.0 mm
08:36 PM 61.1°F16.2°C 55.6°F13.1°C 82% 6.2 mph N10.0 kmh N 9.4 mph15.1 kmh 30.03 in1016.9 mb 0.00 in0.0 mm 0.00 in0.0 mm 0.00 in0.0 mm
08:41 PM 61.5°F16.4°C 55.3°F12.9°C 80% 5.9 mph NNE9.5 kmh NNE 9.4 mph15.1 kmh 30.03 in1016.9 mb 0.00 in0.0 mm 0.00 in0.0 mm 0.00 in0.0 mm
08:46 PM 61.7°F16.5°C 55.5°F13.1°C 80% 2.7 mph NNW4.3 kmh NNW 8.0 mph12.9 kmh 30.06 in1017.9 mb 0.00 in0.0 mm 0.00 in0.0 mm 0.00 in0.0 mm
08:51 PM 61.5°F16.4°C 55.0°F12.8°C 79% 2.2 mph ENE3.5 kmh ENE 5.0 mph8.0 kmh 30.06 in1017.9 mb 0.00 in0.0 mm 0.00 in0.0 mm 0.00 in0.0 mm
08:56 PM 61.5°F16.4°C 55.0°F12.8°C 79% 4.4 mph NE7.1 kmh NE 5.0 mph8.0 kmh 30.06 in1017.9 mb 0.00 in0.0 mm 0.00 in0.0 mm 0.00 in0.0 mm
09:01 PM 61.5°F16.4°C 55.0°F12.8°C 79% 3.8 mph NNE6.1 kmh NNE 5.4 mph8.7 kmh 30.03 in1016.9 mb 0.00 in0.0 mm 0.00 in0.0 mm 0.00 in0.0 mm
09:06 PM 61.5°F16.4°C 54.6°F12.6°C 78% 3.7 mph NE6.0 kmh NE 5.4 mph8.7 kmh 30.03 in1016.9 mb 0.00 in0.0 mm 0.00 in0.0 mm 0.00 in0.0 mm
09:11 PM 61.5°F16.4°C 54.6°F12.6°C 78% 3.4 mph NE5.5 kmh NE 5.8 mph9.3 kmh 30.03 in1016.9 mb 0.00 in0.0 mm 0.00 in0.0 mm 0.00 in0.0 mm
09:16 PM 61.7°F16.5°C 53.8°F12.1°C 75% 7.7 mph N12.4 kmh N 12.6 mph20.3 kmh 30.03 in1016.9 mb 0.00 in0.0 mm 0.00 in0.0 mm 0.00 in0.0 mm
09:21 PM 61.7°F16.5°C 52.7°F11.5°C 72% 5.5 mph NNE8.9 kmh NNE 15.6 mph25.1 kmh 30.03 in1016.9 mb 0.00 in0.0 mm 0.00 in0.0 mm 0.00 in0.0 mm
09:26 PM 61.9°F16.6°C 51.7°F10.9°C 69% 6.8 mph NE10.9 kmh NE 15.6 mph25.1 kmh 30.03 in1016.9 mb 0.00 in0.0 mm 0.00 in0.0 mm 0.00 in0.0 mm
09:31 PM 61.9°F16.6°C 48.9°F9.4°C 62% 11.2 mph N18.0 kmh N 20.2 mph32.5 kmh 30.03 in1016.9 mb 0.00 in0.0 mm 0.00 in0.0 mm 0.00 in0.0 mm
09:37 PM 62.0°F16.7°C 48.1°F8.9°C 60% 10.3 mph NNE16.6 kmh NNE 20.2 mph32.5 kmh 30.03 in1016.9 mb 0.00 in0.0 mm 0.00 in0.0 mm 0.00 in0.0 mm
09:42 PM 61.7°F16.5°C 47.8°F8.8°C 60% 8.3 mph NNE13.4 kmh NNE 17.4 mph28.0 kmh 30.03 in1016.9 mb 0.00 in0.0 mm 0.00 in0.0 mm 0.00 in0.0 mm
09:47 PM 61.5°F16.4°C 47.6°F8.7°C 60% 8.7 mph NNE14.0 kmh NNE 14.8 mph23.8 kmh 30.06 in1017.9 mb 0.00 in0.0 mm 0.00 in0.0 mm 0.00 in0.0 mm
09:52 PM 61.7°F16.5°C 46.9°F8.3°C 58% 12.2 mph N19.6 kmh N 19.6 mph31.5 kmh 30.06 in1017.9 mb 0.00 in0.0 mm 0.00 in0.0 mm 0.00 in0.0 mm
09:57 PM 61.5°F16.4°C 46.2°F7.9°C 57% 12.5 mph NNE20.1 kmh NNE 19.6 mph31.5 kmh 30.06 in1017.9 mb 0.00 in0.0 mm 0.00 in0.0 mm 0.00 in0.0 mm
10:02 PM 61.5°F16.4°C 46.7°F8.2°C 58% 7.3 mph NNE11.7 kmh NNE 17.4 mph28.0 kmh 30.06 in1017.9 mb 0.00 in0.0 mm 0.00 in0.0 mm 0.00 in0.0 mm
10:07 PM 61.3°F16.3°C 45.5°F7.5°C 56% 9.0 mph N14.5 kmh N 12.0 mph19.3 kmh 30.06 in1017.9 mb 0.00 in0.0 mm 0.00 in0.0 mm 0.00 in0.0 mm
10:12 PM 61.1°F16.2°C 46.3°F7.9°C 58% 5.6 mph NE9.0 kmh NE 12.0 mph19.3 kmh 30.06 in1017.9 mb 0.00 in0.0 mm 0.00 in0.0 mm 0.00 in0.0 mm
10:17 PM 61.0°F16.1°C 45.7°F7.6°C 57% 6.0 mph N9.7 kmh N 11.2 mph18.0 kmh 30.06 in1017.9 mb 0.00 in0.0 mm 0.00 in0.0 mm 0.00 in0.0 mm
10:22 PM 61.0°F16.1°C 45.7°F7.6°C 57% 6.9 mph NNE11.1 kmh NNE 11.2 mph18.0 kmh 30.06 in1017.9 mb 0.00 in0.0 mm 0.00 in0.0 mm 0.00 in0.0 mm
10:27 PM 60.8°F16.0°C 46.0°F7.8°C 58% 9.1 mph N14.6 kmh N 13.0 mph20.9 kmh 30.09 in1019.0 mb 0.00 in0.0 mm 0.00 in0.0 mm 0.00 in0.0 mm
10:32 PM 60.8°F16.0°C 45.6°F7.6°C 57% 9.7 mph NNE15.6 kmh NNE 13.0 mph20.9 kmh 30.09 in1019.0 mb 0.00 in0.0 mm 0.00 in0.0 mm 0.00 in0.0 mm
10:37 PM 60.8°F16.0°C 45.1°F7.3°C 56% 7.8 mph N12.6 kmh N 11.6 mph18.7 kmh 30.09 in1019.0 mb 0.00 in0.0 mm 0.00 in0.0 mm 0.00 in0.0 mm
10:42 PM 60.8°F16.0°C 45.1°F7.3°C 56% 9.0 mph NNE14.5 kmh NNE 12.6 mph20.3 kmh 30.09 in1019.0 mb 0.00 in0.0 mm 0.00 in0.0 mm 0.00 in0.0 mm
10:47 PM 60.8°F16.0°C 44.1°F6.7°C 54% 10.5 mph N16.9 kmh N 21.4 mph34.4 kmh 30.09 in1019.0 mb 0.00 in0.0 mm 0.00 in0.0 mm 0.00 in0.0 mm
10:52 PM 60.6°F15.9°C 42.9°F6.1°C 52% 15.5 mph N24.9 kmh N 25.6 mph41.2 kmh 30.09 in1019.0 mb 0.00 in0.0 mm 0.00 in0.0 mm 0.00 in0.0 mm
10:58 PM 60.4°F15.8°C 43.2°F6.2°C 53% 12.6 mph N20.3 kmh N 25.6 mph41.2 kmh 30.06 in1017.9 mb 0.00 in0.0 mm 0.00 in0.0 mm 0.00 in0.0 mm
11:03 PM 60.2°F15.7°C 43.0°F6.1°C 53% 8.5 mph NNE13.7 kmh NNE 17.4 mph28.0 kmh 30.06 in1017.9 mb 0.00 in0.0 mm 0.00 in0.0 mm 0.00 in0.0 mm
11:08 PM 60.1°F15.6°C 42.9°F6.1°C 53% 9.8 mph N15.8 kmh N 17.4 mph28.0 kmh 30.06 in1017.9 mb 0.00 in0.0 mm 0.00 in0.0 mm 0.00 in0.0 mm
11:13 PM 59.9°F15.5°C 42.8°F6.0°C 53% 9.5 mph N15.3 kmh N 14.4 mph23.2 kmh 30.09 in1019.0 mb 0.00 in0.0 mm 0.00 in0.0 mm 0.00 in0.0 mm
11:18 PM 59.8°F15.4°C 42.6°F5.9°C 53% 8.0 mph NNE12.9 kmh NNE 19.6 mph31.5 kmh 30.09 in1019.0 mb 0.00 in0.0 mm 0.00 in0.0 mm 0.00 in0.0 mm
11:23 PM 59.6°F15.3°C 41.9°F5.5°C 52% 10.9 mph NNE17.5 kmh NNE 19.6 mph31.5 kmh 30.09 in1019.0 mb 0.00 in0.0 mm 0.00 in0.0 mm 0.00 in0.0 mm
11:28 PM 59.4°F15.2°C 41.2°F5.1°C 51% 9.9 mph N15.9 kmh N 17.4 mph28.0 kmh 30.09 in1019.0 mb 0.00 in0.0 mm 0.00 in0.0 mm 0.00 in0.0 mm
11:33 PM 59.3°F15.2°C 41.1°F5.1°C 51% 10.1 mph N16.3 kmh N 17.4 mph28.0 kmh 30.09 in1019.0 mb 0.00 in0.0 mm 0.00 in0.0 mm 0.00 in0.0 mm
11:38 PM 58.9°F14.9°C 40.7°F4.8°C 51% 9.2 mph N14.8 kmh N 17.4 mph28.0 kmh 30.09 in1019.0 mb 0.00 in0.0 mm 0.00 in0.0 mm 0.00 in0.0 mm
11:43 PM 58.7°F14.8°C 41.0°F5.0°C 52% 8.3 mph NNE13.4 kmh NNE 12.6 mph20.3 kmh 30.12 in1020.0 mb 0.00 in0.0 mm 0.00 in0.0 mm 0.00 in0.0 mm
11:48 PM 58.4°F14.7°C 41.3°F5.2°C 53% 6.0 mph N9.7 kmh N 11.6 mph18.7 kmh 30.12 in1020.0 mb 0.00 in0.0 mm 0.00 in0.0 mm 0.00 in0.0 mm
11:53 PM 58.4°F14.7°C 41.3°F5.2°C 53% 8.6 mph N13.8 kmh N 14.4 mph23.2 kmh 30.12 in1020.0 mb 0.00 in0.0 mm 0.00 in0.0 mm 0.00 in0.0 mm
11:58 PM 58.4°F14.7°C 41.3°F5.2°C 53% 10.7 mph NNE17.2 kmh NNE 19.2 mph30.9 kmh 30.12 in1020.0 mb 0.00 in0.0 mm 0.00 in0.0 mm 0.00 in0.0 mm